sensor_id;sensor_type;location;lat;lon;timestamp;temperature;humidity
11304;DHT22;5707;49.588;12.148;2023-05-08T00:01:25;8.30;99.90
11304;DHT22;5707;49.588;12.148;2023-05-08T00:03:51;8.20;99.90
11304;DHT22;5707;49.588;12.148;2023-05-08T00:06:17;8.20;99.90
11304;DHT22;5707;49.588;12.148;2023-05-08T00:08:42;8.10;99.90
11304;DHT22;5707;49.588;12.148;2023-05-08T00:11:08;8.10;99.90
11304;DHT22;5707;49.588;12.148;2023-05-08T00:13:33;8.10;99.90
11304;DHT22;5707;49.588;12.148;2023-05-08T00:15:59;8.00;99.90
11304;DHT22;5707;49.588;12.148;2023-05-08T00:18:25;7.90;99.90
11304;DHT22;5707;49.588;12.148;2023-05-08T00:20:50;7.90;99.90
11304;DHT22;5707;49.588;12.148;2023-05-08T00:23:16;7.90;99.90
11304;DHT22;5707;49.588;12.148;2023-05-08T00:25:42;7.90;99.90
11304;DHT22;5707;49.588;12.148;2023-05-08T00:28:07;7.80;99.90
11304;DHT22;5707;49.588;12.148;2023-05-08T00:30:33;7.70;99.90
11304;DHT22;5707;49.588;12.148;2023-05-08T00:32:58;7.70;99.90
11304;DHT22;5707;49.588;12.148;2023-05-08T00:35:24;7.60;99.90
11304;DHT22;5707;49.588;12.148;2023-05-08T00:37:49;7.60;99.90
11304;DHT22;5707;49.588;12.148;2023-05-08T00:40:15;7.60;99.90
11304;DHT22;5707;49.588;12.148;2023-05-08T00:42:41;7.60;99.90
11304;DHT22;5707;49.588;12.148;2023-05-08T00:45:07;7.60;99.90
11304;DHT22;5707;49.588;12.148;2023-05-08T00:47:33;7.60;99.90
11304;DHT22;5707;49.588;12.148;2023-05-08T00:49:59;7.60;99.90
11304;DHT22;5707;49.588;12.148;2023-05-08T00:52:27;7.60;99.90
11304;DHT22;5707;49.588;12.148;2023-05-08T00:54:54;7.60;99.90
11304;DHT22;5707;49.588;12.148;2023-05-08T00:57:21;7.60;99.90
11304;DHT22;5707;49.588;12.148;2023-05-08T00:59:48;7.50;99.90
11304;DHT22;5707;49.588;12.148;2023-05-08T01:02:14;7.50;99.90
11304;DHT22;5707;49.588;12.148;2023-05-08T01:04:41;7.50;99.90
11304;DHT22;5707;49.588;12.148;2023-05-08T01:07:09;7.50;99.90
11304;DHT22;5707;49.588;12.148;2023-05-08T01:09:35;7.50;99.90
11304;DHT22;5707;49.588;12.148;2023-05-08T01:12:08;7.40;99.90
11304;DHT22;5707;49.588;12.148;2023-05-08T01:17:31;7.40;99.90
11304;DHT22;5707;49.588;12.148;2023-05-08T01:20:41;7.40;99.90
11304;DHT22;5707;49.588;12.148;2023-05-08T01:31:38;7.30;99.90
11304;DHT22;5707;49.588;12.148;2023-05-08T01:34:08;7.30;99.90
11304;DHT22;5707;49.588;12.148;2023-05-08T01:36:44;7.30;99.90
11304;DHT22;5707;49.588;12.148;2023-05-08T01:39:25;7.30;99.90
11304;DHT22;5707;49.588;12.148;2023-05-08T01:42:09;7.30;99.90
11304;DHT22;5707;49.588;12.148;2023-05-08T01:44:42;7.30;99.90
11304;DHT22;5707;49.588;12.148;2023-05-08T01:47:10;7.30;99.90
11304;DHT22;5707;49.588;12.148;2023-05-08T01:49:40;7.20;99.90
11304;DHT22;5707;49.588;12.148;2023-05-08T01:52:15;7.20;99.90
11304;DHT22;5707;49.588;12.148;2023-05-08T01:54:49;7.20;99.90
11304;DHT22;5707;49.588;12.148;2023-05-08T01:57:23;7.10;99.90
11304;DHT22;5707;49.588;12.148;2023-05-08T01:59:51;7.10;99.90
11304;DHT22;5707;49.588;12.148;2023-05-08T02:02:19;7.10;99.90
11304;DHT22;5707;49.588;12.148;2023-05-08T02:04:46;7.00;99.90
11304;DHT22;5707;49.588;12.148;2023-05-08T02:07:13;7.00;99.90
11304;DHT22;5707;49.588;12.148;2023-05-08T02:09:40;7.00;99.90
11304;DHT22;5707;49.588;12.148;2023-05-08T02:12:07;7.00;99.90
11304;DHT22;5707;49.588;12.148;2023-05-08T02:14:33;7.00;99.90
11304;DHT22;5707;49.588;12.148;2023-05-08T02:17:01;6.90;99.90
11304;DHT22;5707;49.588;12.148;2023-05-08T02:19:28;6.90;99.90
11304;DHT22;5707;49.588;12.148;2023-05-08T02:21:56;6.90;99.90
11304;DHT22;5707;49.588;12.148;2023-05-08T02:24:23;6.80;99.90
11304;DHT22;5707;49.588;12.148;2023-05-08T02:26:49;6.80;99.90
11304;DHT22;5707;49.588;12.148;2023-05-08T02:29:16;6.70;99.90
11304;DHT22;5707;49.588;12.148;2023-05-08T02:31:43;6.70;99.90
11304;DHT22;5707;49.588;12.148;2023-05-08T02:34:10;6.60;99.90
11304;DHT22;5707;49.588;12.148;2023-05-08T02:36:36;6.70;99.90
11304;DHT22;5707;49.588;12.148;2023-05-08T02:39:05;6.60;99.90
11304;DHT22;5707;49.588;12.148;2023-05-08T02:41:32;6.60;99.90
11304;DHT22;5707;49.588;12.148;2023-05-08T02:43:59;6.60;99.90
11304;DHT22;5707;49.588;12.148;2023-05-08T02:46:29;6.60;99.90
11304;DHT22;5707;49.588;12.148;2023-05-08T02:49:03;6.50;99.90
11304;DHT22;5707;49.588;12.148;2023-05-08T02:51:48;6.50;99.90
11304;DHT22;5707;49.588;12.148;2023-05-08T02:54:28;6.40;99.90
11304;DHT22;5707;49.588;12.148;2023-05-08T02:57:13;6.40;99.90
11304;DHT22;5707;49.588;12.148;2023-05-08T02:59:48;6.40;99.90
11304;DHT22;5707;49.588;12.148;2023-05-08T03:02:21;6.30;99.90
11304;DHT22;5707;49.588;12.148;2023-05-08T03:04:58;6.30;99.90
11304;DHT22;5707;49.588;12.148;2023-05-08T03:07:28;6.30;99.90
11304;DHT22;5707;49.588;12.148;2023-05-08T03:09:59;6.30;99.90
11304;DHT22;5707;49.588;12.148;2023-05-08T03:12:27;6.30;99.90
11304;DHT22;5707;49.588;12.148;2023-05-08T03:15:13;6.20;99.90
11304;DHT22;5707;49.588;12.148;2023-05-08T03:17:43;6.30;99.90
11304;DHT22;5707;49.588;12.148;2023-05-08T03:20:13;6.20;99.90
11304;DHT22;5707;49.588;12.148;2023-05-08T03:22:42;6.20;99.90
11304;DHT22;5707;49.588;12.148;2023-05-08T03:25:10;6.20;99.90
11304;DHT22;5707;49.588;12.148;2023-05-08T03:27:39;6.20;99.90
11304;DHT22;5707;49.588;12.148;2023-05-08T03:30:05;6.20;99.90
11304;DHT22;5707;49.588;12.148;2023-05-08T03:32:32;6.10;99.90
11304;DHT22;5707;49.588;12.148;2023-05-08T03:35:00;6.10;99.90
11304;DHT22;5707;49.588;12.148;2023-05-08T03:37:27;6.10;99.90
11304;DHT22;5707;49.588;12.148;2023-05-08T03:39:54;6.10;99.90
11304;DHT22;5707;49.588;12.148;2023-05-08T03:42:20;6.10;99.90
11304;DHT22;5707;49.588;12.148;2023-05-08T03:44:49;6.10;99.90
11304;DHT22;5707;49.588;12.148;2023-05-08T03:47:16;6.20;99.90
11304;DHT22;5707;49.588;12.148;2023-05-08T03:49:44;6.20;99.90
11304;DHT22;5707;49.588;12.148;2023-05-08T03:52:12;6.20;99.90
11304;DHT22;5707;49.588;12.148;2023-05-08T03:54:37;6.20;99.90
11304;DHT22;5707;49.588;12.148;2023-05-08T03:57:03;6.20;99.90
11304;DHT22;5707;49.588;12.148;2023-05-08T03:59:43;6.30;99.90
11304;DHT22;5707;49.588;12.148;2023-05-08T04:04:40;6.40;99.90
11304;DHT22;5707;49.588;12.148;2023-05-08T04:07:13;6.60;99.90
11304;DHT22;5707;49.588;12.148;2023-05-08T04:15:24;6.90;99.90
11304;DHT22;5707;49.588;12.148;2023-05-08T04:17:55;7.00;99.90
11304;DHT22;5707;49.588;12.148;2023-05-08T04:20:25;7.10;99.90
11304;DHT22;5707;49.588;12.148;2023-05-08T04:22:53;7.20;99.90
11304;DHT22;5707;49.588;12.148;2023-05-08T04:25:19;7.30;99.90
11304;DHT22;5707;49.588;12.148;2023-05-08T04:27:46;7.40;99.90
11304;DHT22;5707;49.588;12.148;2023-05-08T04:30:13;7.60;99.90
11304;DHT22;5707;49.588;12.148;2023-05-08T04:32:40;7.80;99.90
11304;DHT22;5707;49.588;12.148;2023-05-08T04:35:07;7.90;99.90
11304;DHT22;5707;49.588;12.148;2023-05-08T04:37:33;8.00;99.90
11304;DHT22;5707;49.588;12.148;2023-05-08T04:39:59;8.00;99.90
11304;DHT22;5707;49.588;12.148;2023-05-08T04:42:25;8.10;99.90
11304;DHT22;5707;49.588;12.148;2023-05-08T04:44:51;8.20;99.90
11304;DHT22;5707;49.588;12.148;2023-05-08T04:47:17;8.20;99.90
11304;DHT22;5707;49.588;12.148;2023-05-08T04:49:43;8.30;99.90
11304;DHT22;5707;49.588;12.148;2023-05-08T04:52:09;8.40;99.90
11304;DHT22;5707;49.588;12.148;2023-05-08T04:54:34;8.60;99.90
11304;DHT22;5707;49.588;12.148;2023-05-08T04:57:00;8.80;99.90
11304;DHT22;5707;49.588;12.148;2023-05-08T04:59:25;9.00;99.90
11304;DHT22;5707;49.588;12.148;2023-05-08T05:01:51;9.10;99.90
11304;DHT22;5707;49.588;12.148;2023-05-08T05:04:17;9.30;99.90
11304;DHT22;5707;49.588;12.148;2023-05-08T05:06:42;9.50;99.90
11304;DHT22;5707;49.588;12.148;2023-05-08T05:09:08;9.70;99.90
11304;DHT22;5707;49.588;12.148;2023-05-08T05:11:34;10.10;99.90
11304;DHT22;5707;49.588;12.148;2023-05-08T05:14:00;10.20;99.90
11304;DHT22;5707;49.588;12.148;2023-05-08T05:16:25;10.10;99.90
11304;DHT22;5707;49.588;12.148;2023-05-08T05:18:52;10.00;99.90
11304;DHT22;5707;49.588;12.148;2023-05-08T05:21:17;10.10;99.90
11304;DHT22;5707;49.588;12.148;2023-05-08T05:23:43;10.10;99.90
11304;DHT22;5707;49.588;12.148;2023-05-08T05:26:08;10.30;99.90
11304;DHT22;5707;49.588;12.148;2023-05-08T05:28:34;10.40;99.90
11304;DHT22;5707;49.588;12.148;2023-05-08T05:30:59;10.40;99.90
11304;DHT22;5707;49.588;12.148;2023-05-08T05:33:25;10.60;99.90
11304;DHT22;5707;49.588;12.148;2023-05-08T05:35:51;10.70;99.90
11304;DHT22;5707;49.588;12.148;2023-05-08T05:38:16;10.80;99.90
11304;DHT22;5707;49.588;12.148;2023-05-08T05:40:42;10.90;99.90
11304;DHT22;5707;49.588;12.148;2023-05-08T05:43:08;10.90;99.90
11304;DHT22;5707;49.588;12.148;2023-05-08T05:45:33;10.90;99.90
11304;DHT22;5707;49.588;12.148;2023-05-08T05:48:00;11.00;99.90
11304;DHT22;5707;49.588;12.148;2023-05-08T05:50:26;11.00;99.90
11304;DHT22;5707;49.588;12.148;2023-05-08T05:52:52;11.10;99.90
11304;DHT22;5707;49.588;12.148;2023-05-08T05:55:18;11.20;99.90
11304;DHT22;5707;49.588;12.148;2023-05-08T05:57:44;11.30;99.90
11304;DHT22;5707;49.588;12.148;2023-05-08T06:00:10;11.70;99.90
11304;DHT22;5707;49.588;12.148;2023-05-08T06:02:37;12.00;99.90
11304;DHT22;5707;49.588;12.148;2023-05-08T06:05:03;12.10;99.90
11304;DHT22;5707;49.588;12.148;2023-05-08T06:07:29;12.20;99.90
11304;DHT22;5707;49.588;12.148;2023-05-08T06:09:54;12.30;99.90
11304;DHT22;5707;49.588;12.148;2023-05-08T06:12:20;12.30;99.90
11304;DHT22;5707;49.588;12.148;2023-05-08T06:14:46;12.40;99.90
11304;DHT22;5707;49.588;12.148;2023-05-08T06:17:12;12.60;99.90
11304;DHT22;5707;49.588;12.148;2023-05-08T06:19:37;12.80;99.90
11304;DHT22;5707;49.588;12.148;2023-05-08T06:22:03;12.80;99.90
11304;DHT22;5707;49.588;12.148;2023-05-08T06:24:28;12.60;99.90
11304;DHT22;5707;49.588;12.148;2023-05-08T06:26:54;12.70;99.90
11304;DHT22;5707;49.588;12.148;2023-05-08T06:29:19;12.70;99.90
11304;DHT22;5707;49.588;12.148;2023-05-08T06:31:45;12.80;99.90
11304;DHT22;5707;49.588;12.148;2023-05-08T06:34:10;13.10;99.90
11304;DHT22;5707;49.588;12.148;2023-05-08T06:36:36;13.30;99.90
11304;DHT22;5707;49.588;12.148;2023-05-08T06:39:05;13.50;99.90
11304;DHT22;5707;49.588;12.148;2023-05-08T06:41:31;13.70;99.90
11304;DHT22;5707;49.588;12.148;2023-05-08T06:43:56;13.80;99.90
11304;DHT22;5707;49.588;12.148;2023-05-08T06:46:22;14.00;99.90
11304;DHT22;5707;49.588;12.148;2023-05-08T06:48:47;14.00;99.90
11304;DHT22;5707;49.588;12.148;2023-05-08T06:51:13;14.20;99.90
11304;DHT22;5707;49.588;12.148;2023-05-08T06:53:39;14.30;99.90
11304;DHT22;5707;49.588;12.148;2023-05-08T06:56:04;14.30;99.90
11304;DHT22;5707;49.588;12.148;2023-05-08T06:58:30;14.30;99.90
11304;DHT22;5707;49.588;12.148;2023-05-08T07:00:58;14.30;99.90
11304;DHT22;5707;49.588;12.148;2023-05-08T07:03:25;14.30;99.90
11304;DHT22;5707;49.588;12.148;2023-05-08T07:05:50;14.20;99.90
11304;DHT22;5707;49.588;12.148;2023-05-08T07:08:16;14.10;99.90
11304;DHT22;5707;49.588;12.148;2023-05-08T07:10:41;14.20;99.90
11304;DHT22;5707;49.588;12.148;2023-05-08T07:13:07;14.30;99.90
11304;DHT22;5707;49.588;12.148;2023-05-08T07:15:32;14.40;99.90
11304;DHT22;5707;49.588;12.148;2023-05-08T07:17:58;14.60;99.90
11304;DHT22;5707;49.588;12.148;2023-05-08T07:20:23;14.70;99.90
11304;DHT22;5707;49.588;12.148;2023-05-08T07:22:52;14.60;99.90
11304;DHT22;5707;49.588;12.148;2023-05-08T07:25:18;14.50;99.90
11304;DHT22;5707;49.588;12.148;2023-05-08T07:27:43;14.60;99.90
11304;DHT22;5707;49.588;12.148;2023-05-08T07:30:09;14.60;99.90
11304;DHT22;5707;49.588;12.148;2023-05-08T07:32:35;14.60;99.90
11304;DHT22;5707;49.588;12.148;2023-05-08T07:35:02;14.60;99.90
11304;DHT22;5707;49.588;12.148;2023-05-08T07:37:30;14.60;99.90
11304;DHT22;5707;49.588;12.148;2023-05-08T07:39:57;14.60;99.90
11304;DHT22;5707;49.588;12.148;2023-05-08T07:42:22;14.60;99.90
11304;DHT22;5707;49.588;12.148;2023-05-08T07:44:48;14.80;99.90
11304;DHT22;5707;49.588;12.148;2023-05-08T07:47:13;14.90;99.90
11304;DHT22;5707;49.588;12.148;2023-05-08T07:49:39;14.90;99.90
11304;DHT22;5707;49.588;12.148;2023-05-08T07:52:05;14.70;99.90
11304;DHT22;5707;49.588;12.148;2023-05-08T07:54:30;14.70;99.90
11304;DHT22;5707;49.588;12.148;2023-05-08T07:56:56;14.80;99.90
11304;DHT22;5707;49.588;12.148;2023-05-08T07:59:21;14.70;99.90
11304;DHT22;5707;49.588;12.148;2023-05-08T08:01:47;14.80;99.90
11304;DHT22;5707;49.588;12.148;2023-05-08T08:04:13;14.90;99.90
11304;DHT22;5707;49.588;12.148;2023-05-08T08:06:41;15.00;99.90
11304;DHT22;5707;49.588;12.148;2023-05-08T08:09:07;14.90;99.90
11304;DHT22;5707;49.588;12.148;2023-05-08T08:11:32;15.00;99.90
11304;DHT22;5707;49.588;12.148;2023-05-08T08:13:58;15.00;99.90
11304;DHT22;5707;49.588;12.148;2023-05-08T08:16:23;15.10;99.90
11304;DHT22;5707;49.588;12.148;2023-05-08T08:18:49;15.50;99.90
11304;DHT22;5707;49.588;12.148;2023-05-08T08:21:17;15.70;99.90
11304;DHT22;5707;49.588;12.148;2023-05-08T08:23:42;15.70;99.90
11304;DHT22;5707;49.588;12.148;2023-05-08T08:26:08;15.70;99.90
11304;DHT22;5707;49.588;12.148;2023-05-08T08:28:33;15.90;99.90
11304;DHT22;5707;49.588;12.148;2023-05-08T08:31:00;16.10;99.90
11304;DHT22;5707;49.588;12.148;2023-05-08T08:33:29;16.40;99.90
11304;DHT22;5707;49.588;12.148;2023-05-08T08:35:55;16.50;99.90
11304;DHT22;5707;49.588;12.148;2023-05-08T08:38:20;16.50;99.90
11304;DHT22;5707;49.588;12.148;2023-05-08T08:40:46;16.70;99.90
11304;DHT22;5707;49.588;12.148;2023-05-08T08:43:11;16.60;99.90
11304;DHT22;5707;49.588;12.148;2023-05-08T08:45:37;16.70;99.90
11304;DHT22;5707;49.588;12.148;2023-05-08T08:48:04;17.00;99.90
11304;DHT22;5707;49.588;12.148;2023-05-08T08:50:34;17.40;99.90
11304;DHT22;5707;49.588;12.148;2023-05-08T08:55:39;17.00;99.90
11304;DHT22;5707;49.588;12.148;2023-05-08T09:01:23;16.70;99.90
11304;DHT22;5707;49.588;12.148;2023-05-08T09:03:50;17.00;99.90
11304;DHT22;5707;49.588;12.148;2023-05-08T09:06:16;16.90;99.90
11304;DHT22;5707;49.588;12.148;2023-05-08T09:08:42;16.90;99.90
11304;DHT22;5707;49.588;12.148;2023-05-08T09:11:08;17.00;99.90
11304;DHT22;5707;49.588;12.148;2023-05-08T09:13:33;17.10;99.90
11304;DHT22;5707;49.588;12.148;2023-05-08T09:15:59;17.20;99.90
11304;DHT22;5707;49.588;12.148;2023-05-08T09:18:25;17.30;99.90
11304;DHT22;5707;49.588;12.148;2023-05-08T09:20:51;17.30;99.90
11304;DHT22;5707;49.588;12.148;2023-05-08T09:23:17;17.40;99.90
11304;DHT22;5707;49.588;12.148;2023-05-08T09:25:43;17.60;99.90
11304;DHT22;5707;49.588;12.148;2023-05-08T09:28:17;17.70;99.90
11304;DHT22;5707;49.588;12.148;2023-05-08T09:30:56;17.90;99.90
11304;DHT22;5707;49.588;12.148;2023-05-08T09:33:24;17.90;99.90
11304;DHT22;5707;49.588;12.148;2023-05-08T09:35:50;18.20;99.90
11304;DHT22;5707;49.588;12.148;2023-05-08T09:38:38;18.20;99.90
11304;DHT22;5707;49.588;12.148;2023-05-08T09:41:09;18.00;99.90
11304;DHT22;5707;49.588;12.148;2023-05-08T09:43:35;18.10;99.90
11304;DHT22;5707;49.588;12.148;2023-05-08T09:46:23;18.30;99.90
11304;DHT22;5707;49.588;12.148;2023-05-08T09:48:51;18.10;99.90
11304;DHT22;5707;49.588;12.148;2023-05-08T09:51:17;18.00;99.90
11304;DHT22;5707;49.588;12.148;2023-05-08T09:53:43;18.00;99.90
11304;DHT22;5707;49.588;12.148;2023-05-08T09:56:08;18.20;99.90
11304;DHT22;5707;49.588;12.148;2023-05-08T09:58:41;18.30;99.90
11304;DHT22;5707;49.588;12.148;2023-05-08T10:01:26;18.30;99.90
11304;DHT22;5707;49.588;12.148;2023-05-08T10:03:51;18.60;99.40
11304;DHT22;5707;49.588;12.148;2023-05-08T10:06:17;18.60;99.70
11304;DHT22;5707;49.588;12.148;2023-05-08T10:08:43;19.00;98.90
11304;DHT22;5707;49.588;12.148;2023-05-08T10:11:17;19.20;99.20
11304;DHT22;5707;49.588;12.148;2023-05-08T10:13:44;19.10;99.10
11304;DHT22;5707;49.588;12.148;2023-05-08T10:16:13;19.10;98.30
11304;DHT22;5707;49.588;12.148;2023-05-08T10:18:47;19.40;97.20
11304;DHT22;5707;49.588;12.148;2023-05-08T10:21:14;19.10;97.60
11304;DHT22;5707;49.588;12.148;2023-05-08T10:23:41;19.10;97.50
11304;DHT22;5707;49.588;12.148;2023-05-08T10:26:12;19.20;97.20
11304;DHT22;5707;49.588;12.148;2023-05-08T10:28:48;19.40;97.30
11304;DHT22;5707;49.588;12.148;2023-05-08T10:31:16;19.40;97.10
11304;DHT22;5707;49.588;12.148;2023-05-08T10:33:44;19.40;97.10
11304;DHT22;5707;49.588;12.148;2023-05-08T10:36:10;19.00;97.10
11304;DHT22;5707;49.588;12.148;2023-05-08T10:38:38;18.70;97.10
11304;DHT22;5707;49.588;12.148;2023-05-08T10:41:05;18.80;97.30
11304;DHT22;5707;49.588;12.148;2023-05-08T10:43:31;18.90;97.50
11304;DHT22;5707;49.588;12.148;2023-05-08T10:46:01;19.00;97.40
11304;DHT22;5707;49.588;12.148;2023-05-08T10:51:44;19.50;98.10
11304;DHT22;5707;49.588;12.148;2023-05-08T10:54:18;19.30;96.70
11304;DHT22;5707;49.588;12.148;2023-05-08T10:56:43;19.50;96.90
11304;DHT22;5707;49.588;12.148;2023-05-08T10:59:17;19.60;95.80
11304;DHT22;5707;49.588;12.148;2023-05-08T11:01:47;19.60;95.90
11304;DHT22;5707;49.588;12.148;2023-05-08T11:04:23;20.00;95.80
11304;DHT22;5707;49.588;12.148;2023-05-08T11:06:49;20.30;95.50
11304;DHT22;5707;49.588;12.148;2023-05-08T11:09:46;20.30;93.60
11304;DHT22;5707;49.588;12.148;2023-05-08T11:12:25;20.30;94.00
11304;DHT22;5707;49.588;12.148;2023-05-08T11:15:03;20.20;93.40
11304;DHT22;5707;49.588;12.148;2023-05-08T11:17:31;20.40;94.40
11304;DHT22;5707;49.588;12.148;2023-05-08T11:19:59;20.50;93.00
11304;DHT22;5707;49.588;12.148;2023-05-08T11:22:27;20.40;93.00
11304;DHT22;5707;49.588;12.148;2023-05-08T11:25:09;20.30;93.20
11304;DHT22;5707;49.588;12.148;2023-05-08T11:30:21;20.50;92.90
11304;DHT22;5707;49.588;12.148;2023-05-08T11:32:57;20.50;93.40
11304;DHT22;5707;49.588;12.148;2023-05-08T11:40:59;20.60;92.60
11304;DHT22;5707;49.588;12.148;2023-05-08T11:46:05;19.90;93.70
11304;DHT22;5707;49.588;12.148;2023-05-08T11:48:34;19.90;93.60
11304;DHT22;5707;49.588;12.148;2023-05-08T11:51:00;20.20;92.70
11304;DHT22;5707;49.588;12.148;2023-05-08T11:53:26;20.20;91.50
11304;DHT22;5707;49.588;12.148;2023-05-08T11:55:52;19.90;92.70
11304;DHT22;5707;49.588;12.148;2023-05-08T11:58:18;20.10;91.20
11304;DHT22;5707;49.588;12.148;2023-05-08T12:00:45;20.00;92.50
11304;DHT22;5707;49.588;12.148;2023-05-08T12:03:12;19.90;92.80
11304;DHT22;5707;49.588;12.148;2023-05-08T12:05:38;20.00;94.00
11304;DHT22;5707;49.588;12.148;2023-05-08T12:08:05;20.30;92.70
11304;DHT22;5707;49.588;12.148;2023-05-08T12:10:31;20.40;92.30
11304;DHT22;5707;49.588;12.148;2023-05-08T12:12:57;20.50;92.00
11304;DHT22;5707;49.588;12.148;2023-05-08T12:15:22;20.50;90.90
11304;DHT22;5707;49.588;12.148;2023-05-08T12:17:48;20.50;91.50
11304;DHT22;5707;49.588;12.148;2023-05-08T12:20:24;20.50;92.10
11304;DHT22;5707;49.588;12.148;2023-05-08T12:22:51;20.90;92.10
11304;DHT22;5707;49.588;12.148;2023-05-08T12:25:17;21.10;91.60
11304;DHT22;5707;49.588;12.148;2023-05-08T12:27:44;20.80;93.00
11304;DHT22;5707;49.588;12.148;2023-05-08T12:30:12;20.50;91.20
11304;DHT22;5707;49.588;12.148;2023-05-08T12:32:39;20.50;92.50
11304;DHT22;5707;49.588;12.148;2023-05-08T12:35:09;20.60;92.40
11304;DHT22;5707;49.588;12.148;2023-05-08T12:37:35;20.60;92.00
11304;DHT22;5707;49.588;12.148;2023-05-08T12:40:01;20.80;92.40
11304;DHT22;5707;49.588;12.148;2023-05-08T12:42:48;20.90;91.30
11304;DHT22;5707;49.588;12.148;2023-05-08T12:45:20;20.90;91.10
11304;DHT22;5707;49.588;12.148;2023-05-08T12:47:51;20.70;91.60
11304;DHT22;5707;49.588;12.148;2023-05-08T12:50:18;20.70;91.40
11304;DHT22;5707;49.588;12.148;2023-05-08T12:52:48;20.90;91.30
11304;DHT22;5707;49.588;12.148;2023-05-08T12:55:24;21.00;91.30
11304;DHT22;5707;49.588;12.148;2023-05-08T12:58:02;21.30;91.20
11304;DHT22;5707;49.588;12.148;2023-05-08T13:00:39;21.30;91.00
11304;DHT22;5707;49.588;12.148;2023-05-08T13:03:07;21.40;90.60
11304;DHT22;5707;49.588;12.148;2023-05-08T13:05:34;21.30;90.20
11304;DHT22;5707;49.588;12.148;2023-05-08T13:08:05;21.40;90.60
11304;DHT22;5707;49.588;12.148;2023-05-08T13:10:53;21.60;90.50
11304;DHT22;5707;49.588;12.148;2023-05-08T13:13:23;21.70;91.00
11304;DHT22;5707;49.588;12.148;2023-05-08T13:15:51;22.10;89.50
11304;DHT22;5707;49.588;12.148;2023-05-08T13:18:17;22.20;91.60
11304;DHT22;5707;49.588;12.148;2023-05-08T13:20:43;22.20;90.30
11304;DHT22;5707;49.588;12.148;2023-05-08T13:23:09;22.10;88.20
11304;DHT22;5707;49.588;12.148;2023-05-08T13:25:36;21.90;88.40
11304;DHT22;5707;49.588;12.148;2023-05-08T13:28:03;21.80;88.60
11304;DHT22;5707;49.588;12.148;2023-05-08T13:30:29;21.50;90.10
11304;DHT22;5707;49.588;12.148;2023-05-08T13:32:54;21.50;88.60
11304;DHT22;5707;49.588;12.148;2023-05-08T13:35:20;21.60;87.70
11304;DHT22;5707;49.588;12.148;2023-05-08T13:37:47;21.70;90.40
11304;DHT22;5707;49.588;12.148;2023-05-08T13:40:13;21.80;89.80
11304;DHT22;5707;49.588;12.148;2023-05-08T13:42:39;21.40;88.00
11304;DHT22;5707;49.588;12.148;2023-05-08T13:45:06;20.90;89.80
11304;DHT22;5707;49.588;12.148;2023-05-08T13:47:32;20.70;89.40
11304;DHT22;5707;49.588;12.148;2023-05-08T13:49:58;20.60;89.40
11304;DHT22;5707;49.588;12.148;2023-05-08T13:52:24;20.60;88.80
11304;DHT22;5707;49.588;12.148;2023-05-08T13:54:50;20.90;90.00
11304;DHT22;5707;49.588;12.148;2023-05-08T13:57:16;21.30;88.90
11304;DHT22;5707;49.588;12.148;2023-05-08T13:59:41;21.50;87.60
11304;DHT22;5707;49.588;12.148;2023-05-08T14:02:07;21.70;88.10
11304;DHT22;5707;49.588;12.148;2023-05-08T14:04:32;21.70;88.00
11304;DHT22;5707;49.588;12.148;2023-05-08T14:06:58;21.80;90.40
11304;DHT22;5707;49.588;12.148;2023-05-08T14:09:23;21.80;88.40
11304;DHT22;5707;49.588;12.148;2023-05-08T14:11:49;21.90;86.90
11304;DHT22;5707;49.588;12.148;2023-05-08T14:14:15;21.90;87.60
11304;DHT22;5707;49.588;12.148;2023-05-08T14:16:40;21.90;85.60
11304;DHT22;5707;49.588;12.148;2023-05-08T14:19:06;22.10;87.20
11304;DHT22;5707;49.588;12.148;2023-05-08T14:21:31;22.00;88.50
11304;DHT22;5707;49.588;12.148;2023-05-08T14:23:57;21.90;89.10
11304;DHT22;5707;49.588;12.148;2023-05-08T14:26:22;21.70;87.60
11304;DHT22;5707;49.588;12.148;2023-05-08T14:28:48;21.80;88.70
11304;DHT22;5707;49.588;12.148;2023-05-08T14:31:13;21.70;88.90
11304;DHT22;5707;49.588;12.148;2023-05-08T14:33:39;21.70;87.80
11304;DHT22;5707;49.588;12.148;2023-05-08T14:36:05;21.80;84.70
11304;DHT22;5707;49.588;12.148;2023-05-08T14:38:31;21.70;83.10
11304;DHT22;5707;49.588;12.148;2023-05-08T14:40:56;21.40;82.90
11304;DHT22;5707;49.588;12.148;2023-05-08T14:43:22;21.10;83.30
11304;DHT22;5707;49.588;12.148;2023-05-08T14:45:48;21.00;86.30
11304;DHT22;5707;49.588;12.148;2023-05-08T14:48:14;21.10;88.50
11304;DHT22;5707;49.588;12.148;2023-05-08T14:50:39;21.20;86.70
11304;DHT22;5707;49.588;12.148;2023-05-08T14:53:05;21.10;86.10
11304;DHT22;5707;49.588;12.148;2023-05-08T14:55:31;21.10;87.90
11304;DHT22;5707;49.588;12.148;2023-05-08T14:57:57;21.10;89.10
11304;DHT22;5707;49.588;12.148;2023-05-08T15:00:23;21.30;87.00
11304;DHT22;5707;49.588;12.148;2023-05-08T15:02:48;21.40;86.90
11304;DHT22;5707;49.588;12.148;2023-05-08T15:05:14;21.40;88.20
11304;DHT22;5707;49.588;12.148;2023-05-08T15:07:39;21.30;88.20
11304;DHT22;5707;49.588;12.148;2023-05-08T15:10:05;21.20;88.00
11304;DHT22;5707;49.588;12.148;2023-05-08T15:12:31;21.10;87.10
11304;DHT22;5707;49.588;12.148;2023-05-08T15:14:57;20.90;88.10
11304;DHT22;5707;49.588;12.148;2023-05-08T15:17:23;20.70;89.30
11304;DHT22;5707;49.588;12.148;2023-05-08T15:19:49;20.70;90.50
11304;DHT22;5707;49.588;12.148;2023-05-08T15:22:14;20.80;88.90
11304;DHT22;5707;49.588;12.148;2023-05-08T15:24:40;20.60;89.10
11304;DHT22;5707;49.588;12.148;2023-05-08T15:27:06;20.40;89.90
11304;DHT22;5707;49.588;12.148;2023-05-08T15:29:34;20.40;88.80
11304;DHT22;5707;49.588;12.148;2023-05-08T15:32:00;20.40;89.10
11304;DHT22;5707;49.588;12.148;2023-05-08T15:34:25;20.30;89.90
11304;DHT22;5707;49.588;12.148;2023-05-08T15:36:51;20.40;89.30
11304;DHT22;5707;49.588;12.148;2023-05-08T15:39:17;20.30;88.90
11304;DHT22;5707;49.588;12.148;2023-05-08T15:41:43;20.40;89.70
11304;DHT22;5707;49.588;12.148;2023-05-08T15:44:09;20.50;88.90
11304;DHT22;5707;49.588;12.148;2023-05-08T15:46:35;20.30;88.10
11304;DHT22;5707;49.588;12.148;2023-05-08T15:49:00;20.20;87.40
11304;DHT22;5707;49.588;12.148;2023-05-08T15:51:26;20.10;87.60
11304;DHT22;5707;49.588;12.148;2023-05-08T15:53:51;20.20;88.40
11304;DHT22;5707;49.588;12.148;2023-05-08T15:56:18;20.10;90.10
11304;DHT22;5707;49.588;12.148;2023-05-08T15:58:51;20.10;90.40
11304;DHT22;5707;49.588;12.148;2023-05-08T16:01:21;20.00;90.30
11304;DHT22;5707;49.588;12.148;2023-05-08T16:03:46;20.00;89.70
11304;DHT22;5707;49.588;12.148;2023-05-08T16:06:12;19.80;90.40
11304;DHT22;5707;49.588;12.148;2023-05-08T16:08:37;19.90;89.70
11304;DHT22;5707;49.588;12.148;2023-05-08T16:11:03;19.80;89.40
11304;DHT22;5707;49.588;12.148;2023-05-08T16:13:29;19.80;89.20
11304;DHT22;5707;49.588;12.148;2023-05-08T16:16:00;19.60;89.90
11304;DHT22;5707;49.588;12.148;2023-05-08T16:18:26;19.50;89.10